Observations for FARNBOROUGH, United Kingdom (EGLF)

EGLF 181950Z 20011KT 9999 FEW020 18/14 Q1012
EGLF 181920Z 20012KT 9999 BKN044 18/14 Q1012
EGLF 181850Z 20013KT 9999 FEW019 OVC040 18/14 Q1012 
EGLF 181820Z 20012KT 9999 FEW019 OVC040 18/14 Q1012 
EGLF 181750Z 21011KT 9999 FEW022 18/14 Q1012
EGLF 181720Z 21014KT 9999 FEW022 19/14 Q1012
EGLF 181650Z 21015KT 9999 FEW022 19/14 Q1012
EGLF 181620Z 21014KT 9999 FEW022 SCT032 19/14 Q1012 
EGLF 181550Z 22015KT 9999 SCT020 BKN032 20/14 Q1012 
EGLF 181520Z 20016KT 170V230 9999 SCT020 SCT044 20/15 Q1011 
EGLF 181450Z 22017KT 9999 SCT021 19/14 Q1011
EGLF 181420Z 22018KT 190V250 9999 SCT023 20/14 Q1011
EGLF 181350Z 22019KT 9999 SCT028 20/14 Q1011
EGLF 181320Z 23016KT 9999 BKN032 21/13 Q1011
EGLF 181250Z 23017KT 9999 BKN033 21/13 Q1010
EGLF 181220Z 23017KT 210V270 9999 FEW034 21/12 Q1010
EGLF 181150Z 24019KT 9999 FEW032 21/13 Q1010
EGLF 181120Z 23022KT 9999 FEW032 19/12 Q1009
EGLF 181050Z 23025KT 9999 FEW028 20/12 Q1009
EGLF 181020Z 23021KT 9999 SCT028 19/12 Q1009
EGLF 180950Z 23021KT 9999 SCT027 20/12 Q1009
EGLF 180920Z 23021G32KT 9999 BKN021 18/12 Q1008 
EGLF 180850Z 22022G32KT 9999 SCT014 BKN023 18/14 Q1007  
EGLF 180820Z 22019G29KT 9999 SCT009 BKN015 17/14 Q1007  
EGLF 180750Z 21017KT 9000 -RA FEW003 BKN012 17/15 Q1006 
EGLF 180720Z 21016KT 9000 -RA FEW003 SCT009 BKN012 17/15 Q1006  
EGLF 180650Z 21016KT 9000 -RA FEW003 SCT008 BKN012 17/15 Q1006  
EGLF 180620Z 21019KT 9999 SCT008 BKN012 17/15 Q1006 
EGLF 180550Z 20020KT 8000 -RA FEW005 SCT008 BKN012 17/15 Q1005